< < Back
Terminal Aerodrome Forecast


Current Version              Previous Versions:   1  2  3  4  5  6  7  8  9  

Terminal Aerodrome Forecast

645
FTUS44 KMOB 022320
TAFPNS
TAF
KPNS 022320Z 0300/0324 24013KT P6SM BKN250
     FM030300 20004KT P6SM BKN250
     FM031200 23003KT P6SM VCTS BKN015CB BKN250
     FM031800 19013KT P6SM SCT030 BKN200 PROB30 0320/0324 4SM TSRA
      BKN025CB=



Latest METAR

965
SAUS70 KWBC 030800 RRD
MTRPNS
METAR KPNS 030753Z AUTO 22006KT 10SM CLR 27/23 A3004 RMK AO2 SLP174
T02670228


USA.gov is the U.S. government's official web portal to all federal, state and local government web resources and services.